sensor_id;sensor_type;location;lat;lon;timestamp;temperature;humidity
16627;DHT22;8427;52.204;7.202;2022-09-09T00:00:13;15.20;99.90
16627;DHT22;8427;52.204;7.202;2022-09-09T00:02:46;15.20;99.90
16627;DHT22;8427;52.204;7.202;2022-09-09T00:05:22;15.20;99.90
16627;DHT22;8427;52.204;7.202;2022-09-09T00:07:55;15.10;99.90
16627;DHT22;8427;52.204;7.202;2022-09-09T00:10:29;15.10;99.90
16627;DHT22;8427;52.204;7.202;2022-09-09T00:13:05;15.10;99.90
16627;DHT22;8427;52.204;7.202;2022-09-09T00:15:38;15.10;99.90
16627;DHT22;8427;52.204;7.202;2022-09-09T00:18:17;15.00;99.90
16627;DHT22;8427;52.204;7.202;2022-09-09T00:20:55;15.00;99.90
16627;DHT22;8427;52.204;7.202;2022-09-09T00:23:28;15.00;99.90
16627;DHT22;8427;52.204;7.202;2022-09-09T00:26:05;15.00;99.90
16627;DHT22;8427;52.204;7.202;2022-09-09T00:28:41;15.00;99.90
16627;DHT22;8427;52.204;7.202;2022-09-09T00:31:13;14.90;99.90
16627;DHT22;8427;52.204;7.202;2022-09-09T00:33:43;15.00;99.90
16627;DHT22;8427;52.204;7.202;2022-09-09T00:36:13;14.90;99.90
16627;DHT22;8427;52.204;7.202;2022-09-09T00:38:44;14.90;99.90
16627;DHT22;8427;52.204;7.202;2022-09-09T00:41:18;14.90;99.90
16627;DHT22;8427;52.204;7.202;2022-09-09T00:43:56;14.90;99.90
16627;DHT22;8427;52.204;7.202;2022-09-09T00:46:47;14.90;99.90
16627;DHT22;8427;52.204;7.202;2022-09-09T00:49:28;14.90;99.90
16627;DHT22;8427;52.204;7.202;2022-09-09T00:52:10;14.90;99.90
16627;DHT22;8427;52.204;7.202;2022-09-09T00:54:45;14.90;99.90
16627;DHT22;8427;52.204;7.202;2022-09-09T00:57:23;14.80;99.90
16627;DHT22;8427;52.204;7.202;2022-09-09T01:05:54;14.80;99.90
16627;DHT22;8427;52.204;7.202;2022-09-09T01:08:52;14.80;99.90
16627;DHT22;8427;52.204;7.202;2022-09-09T01:11:26;14.80;99.90
16627;DHT22;8427;52.204;7.202;2022-09-09T01:14:01;14.70;99.90
16627;DHT22;8427;52.204;7.202;2022-09-09T01:16:32;14.60;99.90
16627;DHT22;8427;52.204;7.202;2022-09-09T01:19:01;14.60;99.90
16627;DHT22;8427;52.204;7.202;2022-09-09T01:21:37;14.60;99.90
16627;DHT22;8427;52.204;7.202;2022-09-09T01:24:22;14.50;99.90
16627;DHT22;8427;52.204;7.202;2022-09-09T01:26:57;14.40;99.90
16627;DHT22;8427;52.204;7.202;2022-09-09T01:29:27;14.30;99.90
16627;DHT22;8427;52.204;7.202;2022-09-09T01:31:56;14.30;99.90
16627;DHT22;8427;52.204;7.202;2022-09-09T01:34:28;14.30;99.90
16627;DHT22;8427;52.204;7.202;2022-09-09T01:36:59;14.20;99.90
16627;DHT22;8427;52.204;7.202;2022-09-09T01:39:31;14.20;99.90
16627;DHT22;8427;52.204;7.202;2022-09-09T01:42:02;14.20;99.90
16627;DHT22;8427;52.204;7.202;2022-09-09T01:44:30;14.20;99.90
16627;DHT22;8427;52.204;7.202;2022-09-09T01:46:58;14.20;99.90
16627;DHT22;8427;52.204;7.202;2022-09-09T01:49:26;14.20;99.90
16627;DHT22;8427;52.204;7.202;2022-09-09T01:51:55;14.10;99.90
16627;DHT22;8427;52.204;7.202;2022-09-09T01:54:27;14.20;99.90
16627;DHT22;8427;52.204;7.202;2022-09-09T01:57:06;14.00;99.90
16627;DHT22;8427;52.204;7.202;2022-09-09T01:59:48;14.00;99.90
16627;DHT22;8427;52.204;7.202;2022-09-09T02:02:20;14.00;99.90
16627;DHT22;8427;52.204;7.202;2022-09-09T02:04:50;14.00;99.90
16627;DHT22;8427;52.204;7.202;2022-09-09T02:07:29;13.90;99.90
16627;DHT22;8427;52.204;7.202;2022-09-09T02:10:02;13.90;99.90
16627;DHT22;8427;52.204;7.202;2022-09-09T02:12:35;13.80;99.90
16627;DHT22;8427;52.204;7.202;2022-09-09T02:15:10;13.80;99.90
16627;DHT22;8427;52.204;7.202;2022-09-09T02:17:41;13.70;99.90
16627;DHT22;8427;52.204;7.202;2022-09-09T02:20:12;13.70;99.90
16627;DHT22;8427;52.204;7.202;2022-09-09T02:22:43;13.60;99.90
16627;DHT22;8427;52.204;7.202;2022-09-09T02:25:15;13.60;99.90
16627;DHT22;8427;52.204;7.202;2022-09-09T02:27:47;13.50;99.90
16627;DHT22;8427;52.204;7.202;2022-09-09T02:30:17;13.50;99.90
16627;DHT22;8427;52.204;7.202;2022-09-09T02:32:48;13.40;99.90
16627;DHT22;8427;52.204;7.202;2022-09-09T02:35:21;13.40;99.90
16627;DHT22;8427;52.204;7.202;2022-09-09T02:37:53;13.30;99.90
16627;DHT22;8427;52.204;7.202;2022-09-09T02:40:22;13.30;99.90
16627;DHT22;8427;52.204;7.202;2022-09-09T02:42:54;13.20;99.90
16627;DHT22;8427;52.204;7.202;2022-09-09T02:45:25;13.20;99.90
16627;DHT22;8427;52.204;7.202;2022-09-09T02:48:03;13.10;99.90
16627;DHT22;8427;52.204;7.202;2022-09-09T02:50:42;13.10;99.90
16627;DHT22;8427;52.204;7.202;2022-09-09T02:53:17;13.00;99.90
16627;DHT22;8427;52.204;7.202;2022-09-09T02:55:48;12.90;99.90
16627;DHT22;8427;52.204;7.202;2022-09-09T02:58:19;13.00;99.90
16627;DHT22;8427;52.204;7.202;2022-09-09T03:00:48;12.90;99.90
16627;DHT22;8427;52.204;7.202;2022-09-09T03:03:18;12.90;99.90
16627;DHT22;8427;52.204;7.202;2022-09-09T03:05:46;12.90;99.90
16627;DHT22;8427;52.204;7.202;2022-09-09T03:08:15;12.90;99.90
16627;DHT22;8427;52.204;7.202;2022-09-09T03:10:43;12.90;99.90
16627;DHT22;8427;52.204;7.202;2022-09-09T03:13:11;12.80;99.90
16627;DHT22;8427;52.204;7.202;2022-09-09T03:15:43;12.80;99.90
16627;DHT22;8427;52.204;7.202;2022-09-09T03:18:11;12.70;99.90
16627;DHT22;8427;52.204;7.202;2022-09-09T03:20:39;12.60;99.90
16627;DHT22;8427;52.204;7.202;2022-09-09T03:23:08;12.60;99.90
16627;DHT22;8427;52.204;7.202;2022-09-09T03:25:46;12.60;99.90
16627;DHT22;8427;52.204;7.202;2022-09-09T03:28:14;12.60;99.90
16627;DHT22;8427;52.204;7.202;2022-09-09T03:30:44;12.60;99.90
16627;DHT22;8427;52.204;7.202;2022-09-09T03:33:12;12.50;99.90
16627;DHT22;8427;52.204;7.202;2022-09-09T03:35:45;12.50;99.90
16627;DHT22;8427;52.204;7.202;2022-09-09T03:38:15;12.40;99.90
16627;DHT22;8427;52.204;7.202;2022-09-09T03:40:49;12.40;99.90
16627;DHT22;8427;52.204;7.202;2022-09-09T03:43:17;12.40;99.90
16627;DHT22;8427;52.204;7.202;2022-09-09T03:45:47;12.40;99.90
16627;DHT22;8427;52.204;7.202;2022-09-09T03:48:16;12.40;99.90
16627;DHT22;8427;52.204;7.202;2022-09-09T03:50:45;12.40;99.90
16627;DHT22;8427;52.204;7.202;2022-09-09T03:53:14;12.30;99.90
16627;DHT22;8427;52.204;7.202;2022-09-09T03:55:44;12.40;99.90
16627;DHT22;8427;52.204;7.202;2022-09-09T03:58:12;12.40;99.90
16627;DHT22;8427;52.204;7.202;2022-09-09T04:00:41;12.40;99.90
16627;DHT22;8427;52.204;7.202;2022-09-09T04:03:13;12.50;99.90
16627;DHT22;8427;52.204;7.202;2022-09-09T04:05:42;12.50;99.90
16627;DHT22;8427;52.204;7.202;2022-09-09T04:08:10;12.50;99.90
16627;DHT22;8427;52.204;7.202;2022-09-09T04:10:38;12.50;99.90
16627;DHT22;8427;52.204;7.202;2022-09-09T04:13:06;12.50;99.90
16627;DHT22;8427;52.204;7.202;2022-09-09T04:15:34;12.50;99.90
16627;DHT22;8427;52.204;7.202;2022-09-09T04:18:03;12.50;99.90
16627;DHT22;8427;52.204;7.202;2022-09-09T04:20:33;12.50;99.90
16627;DHT22;8427;52.204;7.202;2022-09-09T04:23:02;12.60;99.90
16627;DHT22;8427;52.204;7.202;2022-09-09T04:25:30;12.60;99.90
16627;DHT22;8427;52.204;7.202;2022-09-09T04:27:58;12.60;99.90
16627;DHT22;8427;52.204;7.202;2022-09-09T04:30:26;12.60;99.90
16627;DHT22;8427;52.204;7.202;2022-09-09T04:32:55;12.60;99.90
16627;DHT22;8427;52.204;7.202;2022-09-09T04:35:24;12.60;99.90
16627;DHT22;8427;52.204;7.202;2022-09-09T04:37:55;12.60;99.90
16627;DHT22;8427;52.204;7.202;2022-09-09T04:40:23;12.60;99.90
16627;DHT22;8427;52.204;7.202;2022-09-09T04:42:51;12.60;99.90
16627;DHT22;8427;52.204;7.202;2022-09-09T04:45:19;12.60;99.90
16627;DHT22;8427;52.204;7.202;2022-09-09T04:47:47;12.60;99.90
16627;DHT22;8427;52.204;7.202;2022-09-09T04:50:15;12.50;99.90
16627;DHT22;8427;52.204;7.202;2022-09-09T04:52:43;12.50;99.90
16627;DHT22;8427;52.204;7.202;2022-09-09T04:55:13;12.60;99.90
16627;DHT22;8427;52.204;7.202;2022-09-09T04:57:41;12.60;99.90
16627;DHT22;8427;52.204;7.202;2022-09-09T05:00:10;12.60;99.90
16627;DHT22;8427;52.204;7.202;2022-09-09T05:02:38;12.70;99.90
16627;DHT22;8427;52.204;7.202;2022-09-09T05:05:07;12.70;99.90
16627;DHT22;8427;52.204;7.202;2022-09-09T05:07:35;12.70;99.90
16627;DHT22;8427;52.204;7.202;2022-09-09T05:10:04;12.80;99.90
16627;DHT22;8427;52.204;7.202;2022-09-09T05:12:33;12.80;99.90
16627;DHT22;8427;52.204;7.202;2022-09-09T05:15:02;12.90;99.90
16627;DHT22;8427;52.204;7.202;2022-09-09T05:17:30;13.00;99.90
16627;DHT22;8427;52.204;7.202;2022-09-09T05:19:58;13.00;99.90
16627;DHT22;8427;52.204;7.202;2022-09-09T05:22:26;13.10;99.90
16627;DHT22;8427;52.204;7.202;2022-09-09T05:24:54;13.20;99.90
16627;DHT22;8427;52.204;7.202;2022-09-09T05:27:22;13.30;99.90
16627;DHT22;8427;52.204;7.202;2022-09-09T05:29:51;13.40;99.90
16627;DHT22;8427;52.204;7.202;2022-09-09T05:32:19;13.50;99.90
16627;DHT22;8427;52.204;7.202;2022-09-09T05:34:48;13.60;99.90
16627;DHT22;8427;52.204;7.202;2022-09-09T05:37:16;13.60;99.90
16627;DHT22;8427;52.204;7.202;2022-09-09T05:39:44;13.70;99.90
16627;DHT22;8427;52.204;7.202;2022-09-09T05:42:12;13.80;99.90
16627;DHT22;8427;52.204;7.202;2022-09-09T05:44:40;13.90;99.90
16627;DHT22;8427;52.204;7.202;2022-09-09T05:47:12;14.00;99.90
16627;DHT22;8427;52.204;7.202;2022-09-09T05:49:41;14.00;99.90
16627;DHT22;8427;52.204;7.202;2022-09-09T05:52:09;14.00;99.90
16627;DHT22;8427;52.204;7.202;2022-09-09T05:54:38;14.10;99.90
16627;DHT22;8427;52.204;7.202;2022-09-09T05:57:08;14.20;99.90
16627;DHT22;8427;52.204;7.202;2022-09-09T05:59:36;14.20;99.90
16627;DHT22;8427;52.204;7.202;2022-09-09T06:02:05;14.30;99.90
16627;DHT22;8427;52.204;7.202;2022-09-09T06:04:35;14.40;99.90
16627;DHT22;8427;52.204;7.202;2022-09-09T06:07:04;14.50;99.90
16627;DHT22;8427;52.204;7.202;2022-09-09T06:09:32;14.50;99.90
16627;DHT22;8427;52.204;7.202;2022-09-09T06:12:00;14.60;99.90
16627;DHT22;8427;52.204;7.202;2022-09-09T06:14:28;14.70;99.90
16627;DHT22;8427;52.204;7.202;2022-09-09T06:16:56;14.80;99.90
16627;DHT22;8427;52.204;7.202;2022-09-09T06:19:25;14.80;99.90
16627;DHT22;8427;52.204;7.202;2022-09-09T06:21:55;14.90;99.90
16627;DHT22;8427;52.204;7.202;2022-09-09T06:24:23;14.90;99.90
16627;DHT22;8427;52.204;7.202;2022-09-09T06:26:51;15.00;99.90
16627;DHT22;8427;52.204;7.202;2022-09-09T06:29:20;15.00;99.90
16627;DHT22;8427;52.204;7.202;2022-09-09T06:31:48;15.10;99.90
16627;DHT22;8427;52.204;7.202;2022-09-09T06:34:17;15.20;99.90
16627;DHT22;8427;52.204;7.202;2022-09-09T06:36:45;15.20;99.90
16627;DHT22;8427;52.204;7.202;2022-09-09T06:39:15;15.30;99.90
16627;DHT22;8427;52.204;7.202;2022-09-09T06:41:44;15.40;99.90
16627;DHT22;8427;52.204;7.202;2022-09-09T06:44:13;15.50;99.90
16627;DHT22;8427;52.204;7.202;2022-09-09T06:46:42;15.60;99.90
16627;DHT22;8427;52.204;7.202;2022-09-09T06:49:11;15.70;99.90
16627;DHT22;8427;52.204;7.202;2022-09-09T06:51:39;15.70;99.90
16627;DHT22;8427;52.204;7.202;2022-09-09T06:54:10;15.90;99.90
16627;DHT22;8427;52.204;7.202;2022-09-09T06:56:41;15.90;99.90
16627;DHT22;8427;52.204;7.202;2022-09-09T06:59:11;16.00;99.90
16627;DHT22;8427;52.204;7.202;2022-09-09T07:01:42;16.00;99.90
16627;DHT22;8427;52.204;7.202;2022-09-09T07:04:10;16.10;99.90
16627;DHT22;8427;52.204;7.202;2022-09-09T07:06:41;16.20;99.90
16627;DHT22;8427;52.204;7.202;2022-09-09T07:09:12;16.20;99.90
16627;DHT22;8427;52.204;7.202;2022-09-09T07:11:43;16.30;99.90
16627;DHT22;8427;52.204;7.202;2022-09-09T07:14:12;16.40;99.90
16627;DHT22;8427;52.204;7.202;2022-09-09T07:16:41;16.40;99.90
16627;DHT22;8427;52.204;7.202;2022-09-09T07:19:09;16.60;99.90
16627;DHT22;8427;52.204;7.202;2022-09-09T07:21:37;16.70;99.90
16627;DHT22;8427;52.204;7.202;2022-09-09T07:24:07;16.80;99.90
16627;DHT22;8427;52.204;7.202;2022-09-09T07:26:38;16.90;99.90
16627;DHT22;8427;52.204;7.202;2022-09-09T07:29:08;17.00;99.90
16627;DHT22;8427;52.204;7.202;2022-09-09T07:31:46;17.20;99.90
16627;DHT22;8427;52.204;7.202;2022-09-09T07:34:15;17.30;99.90
16627;DHT22;8427;52.204;7.202;2022-09-09T07:36:43;17.40;99.90
16627;DHT22;8427;52.204;7.202;2022-09-09T07:39:14;17.50;99.90
16627;DHT22;8427;52.204;7.202;2022-09-09T07:41:45;17.60;99.90
16627;DHT22;8427;52.204;7.202;2022-09-09T07:44:16;17.70;99.90
16627;DHT22;8427;52.204;7.202;2022-09-09T07:46:45;17.70;99.90
16627;DHT22;8427;52.204;7.202;2022-09-09T07:49:14;17.60;99.90
16627;DHT22;8427;52.204;7.202;2022-09-09T07:51:44;17.60;99.90
16627;DHT22;8427;52.204;7.202;2022-09-09T07:54:14;17.70;99.90
16627;DHT22;8427;52.204;7.202;2022-09-09T07:56:44;17.90;99.90
16627;DHT22;8427;52.204;7.202;2022-09-09T07:59:12;17.90;99.90
16627;DHT22;8427;52.204;7.202;2022-09-09T08:01:44;18.00;99.90
16627;DHT22;8427;52.204;7.202;2022-09-09T08:04:14;18.10;99.90
16627;DHT22;8427;52.204;7.202;2022-09-09T08:06:45;18.20;99.90
16627;DHT22;8427;52.204;7.202;2022-09-09T08:09:14;18.40;99.90
16627;DHT22;8427;52.204;7.202;2022-09-09T08:11:43;18.50;99.90
16627;DHT22;8427;52.204;7.202;2022-09-09T08:14:12;18.70;99.90
16627;DHT22;8427;52.204;7.202;2022-09-09T08:16:44;18.70;99.90
16627;DHT22;8427;52.204;7.202;2022-09-09T08:19:12;18.80;99.90
16627;DHT22;8427;52.204;7.202;2022-09-09T08:21:43;18.90;99.90
16627;DHT22;8427;52.204;7.202;2022-09-09T08:24:12;18.80;99.90
16627;DHT22;8427;52.204;7.202;2022-09-09T08:26:44;18.60;99.90
16627;DHT22;8427;52.204;7.202;2022-09-09T08:29:13;18.50;99.90
16627;DHT22;8427;52.204;7.202;2022-09-09T08:31:44;18.30;99.90
16627;DHT22;8427;52.204;7.202;2022-09-09T08:34:13;18.30;99.90
16627;DHT22;8427;52.204;7.202;2022-09-09T08:36:43;18.40;99.90
16627;DHT22;8427;52.204;7.202;2022-09-09T08:39:13;18.50;99.90
16627;DHT22;8427;52.204;7.202;2022-09-09T08:42:01;18.80;99.90
16627;DHT22;8427;52.204;7.202;2022-09-09T08:44:55;18.80;99.90
16627;DHT22;8427;52.204;7.202;2022-09-09T08:47:35;19.00;99.90
16627;DHT22;8427;52.204;7.202;2022-09-09T08:50:16;19.00;99.90
16627;DHT22;8427;52.204;7.202;2022-09-09T08:52:53;18.90;99.90
16627;DHT22;8427;52.204;7.202;2022-09-09T08:55:31;18.80;99.90
16627;DHT22;8427;52.204;7.202;2022-09-09T08:58:06;18.80;99.90
16627;DHT22;8427;52.204;7.202;2022-09-09T09:03:38;18.70;99.90
16627;DHT22;8427;52.204;7.202;2022-09-09T09:06:24;18.80;99.90
16627;DHT22;8427;52.204;7.202;2022-09-09T09:08:59;19.10;99.90
16627;DHT22;8427;52.204;7.202;2022-09-09T09:11:35;19.20;99.90
16627;DHT22;8427;52.204;7.202;2022-09-09T09:14:08;19.40;99.90
16627;DHT22;8427;52.204;7.202;2022-09-09T09:16:42;19.50;99.90
16627;DHT22;8427;52.204;7.202;2022-09-09T09:19:14;19.90;99.90
16627;DHT22;8427;52.204;7.202;2022-09-09T09:21:44;20.20;99.90
16627;DHT22;8427;52.204;7.202;2022-09-09T09:24:19;20.40;99.90
16627;DHT22;8427;52.204;7.202;2022-09-09T09:26:48;20.30;99.90
16627;DHT22;8427;52.204;7.202;2022-09-09T09:29:18;20.40;99.90
16627;DHT22;8427;52.204;7.202;2022-09-09T09:31:51;20.50;99.90
16627;DHT22;8427;52.204;7.202;2022-09-09T09:34:25;20.70;99.90
16627;DHT22;8427;52.204;7.202;2022-09-09T09:36:54;20.70;99.90
16627;DHT22;8427;52.204;7.202;2022-09-09T09:39:25;20.40;99.90
16627;DHT22;8427;52.204;7.202;2022-09-09T09:42:15;20.60;99.90
16627;DHT22;8427;52.204;7.202;2022-09-09T09:44:48;20.60;99.90
16627;DHT22;8427;52.204;7.202;2022-09-09T09:47:18;20.70;99.90
16627;DHT22;8427;52.204;7.202;2022-09-09T09:49:55;20.60;99.90
16627;DHT22;8427;52.204;7.202;2022-09-09T09:52:28;20.30;99.90
16627;DHT22;8427;52.204;7.202;2022-09-09T09:54:57;20.20;99.90
16627;DHT22;8427;52.204;7.202;2022-09-09T09:57:33;20.10;99.90
16627;DHT22;8427;52.204;7.202;2022-09-09T10:00:06;20.40;99.90
16627;DHT22;8427;52.204;7.202;2022-09-09T10:02:41;20.60;99.90
16627;DHT22;8427;52.204;7.202;2022-09-09T10:05:16;20.70;99.90
16627;DHT22;8427;52.204;7.202;2022-09-09T10:08:04;20.60;99.90
16627;DHT22;8427;52.204;7.202;2022-09-09T10:10:42;20.30;99.90
16627;DHT22;8427;52.204;7.202;2022-09-09T10:13:19;20.50;99.90
16627;DHT22;8427;52.204;7.202;2022-09-09T10:15:59;20.50;99.90
16627;DHT22;8427;52.204;7.202;2022-09-09T10:18:39;20.30;99.90
16627;DHT22;8427;52.204;7.202;2022-09-09T10:21:20;20.20;99.90
16627;DHT22;8427;52.204;7.202;2022-09-09T10:24:17;19.90;99.90
16627;DHT22;8427;52.204;7.202;2022-09-09T10:26:53;19.60;99.90
16627;DHT22;8427;52.204;7.202;2022-09-09T10:29:32;19.70;99.90
16627;DHT22;8427;52.204;7.202;2022-09-09T10:32:13;19.80;99.90
16627;DHT22;8427;52.204;7.202;2022-09-09T10:34:55;20.00;99.90
16627;DHT22;8427;52.204;7.202;2022-09-09T10:37:41;20.30;99.90
16627;DHT22;8427;52.204;7.202;2022-09-09T10:40:23;20.50;99.90
16627;DHT22;8427;52.204;7.202;2022-09-09T10:43:03;20.80;99.90
16627;DHT22;8427;52.204;7.202;2022-09-09T10:45:45;20.90;99.90
16627;DHT22;8427;52.204;7.202;2022-09-09T10:48:31;20.90;99.90
16627;DHT22;8427;52.204;7.202;2022-09-09T10:51:23;20.80;99.90
16627;DHT22;8427;52.204;7.202;2022-09-09T10:54:08;20.70;99.90
16627;DHT22;8427;52.204;7.202;2022-09-09T10:56:42;20.80;99.90
16627;DHT22;8427;52.204;7.202;2022-09-09T10:59:16;20.90;99.90
16627;DHT22;8427;52.204;7.202;2022-09-09T11:01:50;20.90;99.90
16627;DHT22;8427;52.204;7.202;2022-09-09T11:04:22;20.80;99.90
16627;DHT22;8427;52.204;7.202;2022-09-09T11:06:54;20.80;99.90
16627;DHT22;8427;52.204;7.202;2022-09-09T11:09:26;20.70;99.90
16627;DHT22;8427;52.204;7.202;2022-09-09T11:11:57;20.70;99.90
16627;DHT22;8427;52.204;7.202;2022-09-09T11:14:29;20.70;99.90
16627;DHT22;8427;52.204;7.202;2022-09-09T11:17:06;20.90;99.90
16627;DHT22;8427;52.204;7.202;2022-09-09T11:19:39;21.20;99.90
16627;DHT22;8427;52.204;7.202;2022-09-09T11:22:17;21.40;99.90
16627;DHT22;8427;52.204;7.202;2022-09-09T11:24:51;21.60;99.90
16627;DHT22;8427;52.204;7.202;2022-09-09T11:27:24;21.70;99.90
16627;DHT22;8427;52.204;7.202;2022-09-09T11:30:04;22.10;99.90
16627;DHT22;8427;52.204;7.202;2022-09-09T11:35:41;21.80;99.90
16627;DHT22;8427;52.204;7.202;2022-09-09T11:38:19;21.80;99.90
16627;DHT22;8427;52.204;7.202;2022-09-09T11:40:56;21.80;99.90
16627;DHT22;8427;52.204;7.202;2022-09-09T11:43:29;21.70;99.90
16627;DHT22;8427;52.204;7.202;2022-09-09T11:46:01;21.70;99.90
16627;DHT22;8427;52.204;7.202;2022-09-09T11:48:32;21.70;99.90
16627;DHT22;8427;52.204;7.202;2022-09-09T11:51:05;21.80;99.90
16627;DHT22;8427;52.204;7.202;2022-09-09T11:53:47;21.70;99.90
16627;DHT22;8427;52.204;7.202;2022-09-09T11:56:26;21.70;99.90
16627;DHT22;8427;52.204;7.202;2022-09-09T11:58:57;21.80;99.90
16627;DHT22;8427;52.204;7.202;2022-09-09T12:01:34;22.00;99.90
16627;DHT22;8427;52.204;7.202;2022-09-09T12:04:31;22.00;99.90
16627;DHT22;8427;52.204;7.202;2022-09-09T12:07:03;22.00;99.90
16627;DHT22;8427;52.204;7.202;2022-09-09T12:09:44;21.90;99.90
16627;DHT22;8427;52.204;7.202;2022-09-09T12:12:33;21.90;99.90
16627;DHT22;8427;52.204;7.202;2022-09-09T12:15:20;22.20;99.90
16627;DHT22;8427;52.204;7.202;2022-09-09T12:17:50;22.50;99.90
16627;DHT22;8427;52.204;7.202;2022-09-09T12:20:21;22.40;99.90
16627;DHT22;8427;52.204;7.202;2022-09-09T12:23:14;22.10;99.90
16627;DHT22;8427;52.204;7.202;2022-09-09T12:26:05;21.80;99.90
16627;DHT22;8427;52.204;7.202;2022-09-09T12:28:49;21.50;99.90
16627;DHT22;8427;52.204;7.202;2022-09-09T12:31:21;21.50;99.90
16627;DHT22;8427;52.204;7.202;2022-09-09T12:33:52;21.40;99.90
16627;DHT22;8427;52.204;7.202;2022-09-09T12:36:24;21.40;99.90
16627;DHT22;8427;52.204;7.202;2022-09-09T12:38:53;21.50;99.90
16627;DHT22;8427;52.204;7.202;2022-09-09T12:41:23;21.40;99.90
16627;DHT22;8427;52.204;7.202;2022-09-09T12:44:03;21.30;99.90
16627;DHT22;8427;52.204;7.202;2022-09-09T12:46:35;21.40;99.90
16627;DHT22;8427;52.204;7.202;2022-09-09T12:49:04;21.50;99.90
16627;DHT22;8427;52.204;7.202;2022-09-09T12:51:33;21.60;99.90
16627;DHT22;8427;52.204;7.202;2022-09-09T12:54:01;21.70;99.90
16627;DHT22;8427;52.204;7.202;2022-09-09T12:56:33;22.10;99.90
16627;DHT22;8427;52.204;7.202;2022-09-09T12:59:03;22.40;99.90
16627;DHT22;8427;52.204;7.202;2022-09-09T13:01:32;22.10;99.90
16627;DHT22;8427;52.204;7.202;2022-09-09T13:04:01;21.90;99.90
16627;DHT22;8427;52.204;7.202;2022-09-09T13:06:31;21.80;99.90
16627;DHT22;8427;52.204;7.202;2022-09-09T13:09:00;21.80;99.90
16627;DHT22;8427;52.204;7.202;2022-09-09T13:11:33;21.60;99.90
16627;DHT22;8427;52.204;7.202;2022-09-09T13:14:05;21.30;99.90
16627;DHT22;8427;52.204;7.202;2022-09-09T13:16:35;21.00;99.90
16627;DHT22;8427;52.204;7.202;2022-09-09T13:19:13;20.70;99.90
16627;DHT22;8427;52.204;7.202;2022-09-09T13:21:42;20.50;99.90
16627;DHT22;8427;52.204;7.202;2022-09-09T13:24:26;20.70;99.90
16627;DHT22;8427;52.204;7.202;2022-09-09T13:26:57;20.60;99.90
16627;DHT22;8427;52.204;7.202;2022-09-09T13:29:27;20.70;99.90
16627;DHT22;8427;52.204;7.202;2022-09-09T13:32:03;20.80;99.90
16627;DHT22;8427;52.204;7.202;2022-09-09T13:34:34;20.70;99.90
16627;DHT22;8427;52.204;7.202;2022-09-09T13:37:04;20.80;99.90
16627;DHT22;8427;52.204;7.202;2022-09-09T13:39:34;20.80;99.90
16627;DHT22;8427;52.204;7.202;2022-09-09T13:42:04;20.70;99.90
16627;DHT22;8427;52.204;7.202;2022-09-09T13:44:38;20.60;99.90
16627;DHT22;8427;52.204;7.202;2022-09-09T13:47:18;20.60;99.90
16627;DHT22;8427;52.204;7.202;2022-09-09T13:49:46;20.80;99.90
16627;DHT22;8427;52.204;7.202;2022-09-09T13:52:16;21.00;99.90
16627;DHT22;8427;52.204;7.202;2022-09-09T13:54:47;21.10;99.90
16627;DHT22;8427;52.204;7.202;2022-09-09T13:57:17;21.10;99.90
16627;DHT22;8427;52.204;7.202;2022-09-09T13:59:48;20.90;99.90
16627;DHT22;8427;52.204;7.202;2022-09-09T14:02:32;20.80;99.90
16627;DHT22;8427;52.204;7.202;2022-09-09T14:05:00;20.60;99.90
16627;DHT22;8427;52.204;7.202;2022-09-09T14:07:28;20.50;99.90
16627;DHT22;8427;52.204;7.202;2022-09-09T14:09:56;20.30;99.90
16627;DHT22;8427;52.204;7.202;2022-09-09T14:12:28;20.10;99.90
16627;DHT22;8427;52.204;7.202;2022-09-09T14:14:58;19.70;99.90
16627;DHT22;8427;52.204;7.202;2022-09-09T14:17:26;19.10;99.90
16627;DHT22;8427;52.204;7.202;2022-09-09T14:19:57;18.60;99.90
16627;DHT22;8427;52.204;7.202;2022-09-09T14:22:25;18.30;99.90
16627;DHT22;8427;52.204;7.202;2022-09-09T14:24:55;18.00;99.90
16627;DHT22;8427;52.204;7.202;2022-09-09T14:27:24;17.90;99.90
16627;DHT22;8427;52.204;7.202;2022-09-09T14:29:53;17.80;99.90
16627;DHT22;8427;52.204;7.202;2022-09-09T14:32:23;17.70;99.90
16627;DHT22;8427;52.204;7.202;2022-09-09T14:34:51;17.70;99.90
16627;DHT22;8427;52.204;7.202;2022-09-09T14:37:19;17.80;99.90
16627;DHT22;8427;52.204;7.202;2022-09-09T14:39:47;17.90;99.90
16627;DHT22;8427;52.204;7.202;2022-09-09T14:42:17;17.90;99.90
16627;DHT22;8427;52.204;7.202;2022-09-09T14:44:45;18.00;99.90
16627;DHT22;8427;52.204;7.202;2022-09-09T14:47:14;18.20;99.90
16627;DHT22;8427;52.204;7.202;2022-09-09T14:49:43;18.40;99.90
16627;DHT22;8427;52.204;7.202;2022-09-09T14:52:13;18.60;99.90
16627;DHT22;8427;52.204;7.202;2022-09-09T14:54:41;18.70;99.90
16627;DHT22;8427;52.204;7.202;2022-09-09T14:57:09;19.00;99.90
16627;DHT22;8427;52.204;7.202;2022-09-09T14:59:37;19.10;99.90
16627;DHT22;8427;52.204;7.202;2022-09-09T15:02:05;19.20;99.90
16627;DHT22;8427;52.204;7.202;2022-09-09T15:04:33;19.20;99.90
16627;DHT22;8427;52.204;7.202;2022-09-09T15:07:03;19.30;99.90
16627;DHT22;8427;52.204;7.202;2022-09-09T15:09:31;19.40;99.90
16627;DHT22;8427;52.204;7.202;2022-09-09T15:11:59;19.50;99.90
16627;DHT22;8427;52.204;7.202;2022-09-09T15:14:28;19.50;99.90
16627;DHT22;8427;52.204;7.202;2022-09-09T15:16:57;19.60;99.90
16627;DHT22;8427;52.204;7.202;2022-09-09T15:19:25;19.60;99.90
16627;DHT22;8427;52.204;7.202;2022-09-09T15:21:53;19.40;99.90
16627;DHT22;8427;52.204;7.202;2022-09-09T15:24:23;19.40;99.90
16627;DHT22;8427;52.204;7.202;2022-09-09T15:26:52;19.30;99.90
16627;DHT22;8427;52.204;7.202;2022-09-09T15:29:20;19.10;99.90
16627;DHT22;8427;52.204;7.202;2022-09-09T15:31:48;19.10;99.90
16627;DHT22;8427;52.204;7.202;2022-09-09T15:34:16;19.00;99.90
16627;DHT22;8427;52.204;7.202;2022-09-09T15:36:44;18.90;99.90
16627;DHT22;8427;52.204;7.202;2022-09-09T15:39:14;18.90;99.90
16627;DHT22;8427;52.204;7.202;2022-09-09T15:41:45;18.90;99.90
16627;DHT22;8427;52.204;7.202;2022-09-09T15:44:15;19.00;99.90
16627;DHT22;8427;52.204;7.202;2022-09-09T15:46:44;19.10;99.90
16627;DHT22;8427;52.204;7.202;2022-09-09T15:49:14;19.30;99.90
16627;DHT22;8427;52.204;7.202;2022-09-09T15:51:45;19.40;99.90
16627;DHT22;8427;52.204;7.202;2022-09-09T15:54:14;19.40;99.90
16627;DHT22;8427;52.204;7.202;2022-09-09T15:56:45;19.20;99.90
16627;DHT22;8427;52.204;7.202;2022-09-09T15:59:14;19.10;99.90
16627;DHT22;8427;52.204;7.202;2022-09-09T16:01:42;18.90;99.90
16627;DHT22;8427;52.204;7.202;2022-09-09T16:04:11;18.80;99.90
16627;DHT22;8427;52.204;7.202;2022-09-09T16:06:39;18.90;99.90
16627;DHT22;8427;52.204;7.202;2022-09-09T16:09:07;18.80;99.90
16627;DHT22;8427;52.204;7.202;2022-09-09T16:11:37;18.60;99.90
16627;DHT22;8427;52.204;7.202;2022-09-09T16:16:47;18.50;99.90
16627;DHT22;8427;52.204;7.202;2022-09-09T16:19:15;18.40;99.90
16627;DHT22;8427;52.204;7.202;2022-09-09T16:21:46;18.40;99.90
16627;DHT22;8427;52.204;7.202;2022-09-09T16:24:16;18.30;99.90
16627;DHT22;8427;52.204;7.202;2022-09-09T16:26:46;18.20;99.90
16627;DHT22;8427;52.204;7.202;2022-09-09T16:29:16;18.20;99.90